createdAt,value
2018-03-23T00:00:28.225Z,21.23
2018-03-23T00:02:55.805Z,12.90
2018-03-23T00:05:23.460Z,20.20
2018-03-23T00:07:51.042Z,19.83
2018-03-23T00:10:18.632Z,18.90
2018-03-23T00:12:46.621Z,19.50
2018-03-23T00:15:14.488Z,15.93
2018-03-23T00:17:44.536Z,23.87
2018-03-23T00:20:12.605Z,17.97
2018-03-23T00:22:40.548Z,26.50
2018-03-23T00:25:08.620Z,33.57
2018-03-23T00:27:36.340Z,25.90
2018-03-23T00:30:03.981Z,26.80
2018-03-23T00:32:31.597Z,32.13
2018-03-23T00:34:59.574Z,26.23
2018-03-23T00:37:27.228Z,35.77
2018-03-23T00:39:54.818Z,40.47
2018-03-23T00:42:22.465Z,36.50
2018-03-23T00:44:50.049Z,31.50
2018-03-23T00:47:17.884Z,34.43
2018-03-23T00:49:45.567Z,41.97
2018-03-23T00:52:13.399Z,27.43
2018-03-23T00:54:41.033Z,26.93
2018-03-23T00:57:08.953Z,31.20
2018-03-23T00:59:36.545Z,29.50
2018-03-23T01:02:04.536Z,23.27
2018-03-23T01:04:32.111Z,27.70
2018-03-23T01:06:59.684Z,21.23
2018-03-23T01:09:27.362Z,30.07
2018-03-23T01:11:55.234Z,27.80
2018-03-23T01:14:22.835Z,23.90
2018-03-23T01:16:50.478Z,26.50
2018-03-23T01:19:18.289Z,27.40
2018-03-23T01:21:45.895Z,25.80
2018-03-23T01:24:13.550Z,24.80
2018-03-23T01:26:41.389Z,31.77
2018-03-23T01:29:09.047Z,40.53
2018-03-23T01:31:37.005Z,24.93
2018-03-23T01:34:04.839Z,30.07
2018-03-23T01:36:32.703Z,30.83
2018-03-23T01:39:00.641Z,26.93
2018-03-23T01:41:28.245Z,34.17
2018-03-23T01:43:55.840Z,34.47
2018-03-23T01:46:23.555Z,28.40
2018-03-23T01:48:51.200Z,32.97
2018-03-23T01:51:18.794Z,19.53
2018-03-23T01:53:46.429Z,31.70
2018-03-23T01:56:14.244Z,29.23
2018-03-23T01:58:41.909Z,27.03
2018-03-23T02:01:10.110Z,47.80
2018-03-23T02:03:37.712Z,19.40
2018-03-23T02:06:05.640Z,30.17
2018-03-23T02:08:33.612Z,28.03
2018-03-23T02:11:01.229Z,20.50
2018-03-23T02:13:28.889Z,30.60
2018-03-23T02:15:56.920Z,39.80
2018-03-23T02:18:24.513Z,31.67
2018-03-23T02:20:52.230Z,34.03
2018-03-23T02:23:19.930Z,23.27
2018-03-23T02:25:47.867Z,29.30
2018-03-23T02:28:15.479Z,34.73
2018-03-23T02:30:43.201Z,27.60
2018-03-23T02:33:10.803Z,32.60
2018-03-23T02:35:38.378Z,36.60
2018-03-23T02:38:06.376Z,25.67
2018-03-23T02:40:33.952Z,38.10
2018-03-23T02:43:01.848Z,28.77
2018-03-23T02:45:29.852Z,50.43
2018-03-23T02:47:57.461Z,39.40
2018-03-23T02:50:25.065Z,40.47
2018-03-23T02:52:52.724Z,37.87
2018-03-23T02:55:20.325Z,32.10
2018-03-23T02:57:47.931Z,32.23
2018-03-23T03:00:15.581Z,34.30
2018-03-23T03:02:43.222Z,29.00
2018-03-23T03:05:10.887Z,36.17
2018-03-23T03:07:38.460Z,32.30
2018-03-23T03:10:06.366Z,31.10
2018-03-23T03:12:34.186Z,22.93
2018-03-23T03:15:01.864Z,31.33
2018-03-23T03:17:29.584Z,43.90
2018-03-23T03:19:57.177Z,28.43
2018-03-23T03:22:24.786Z,37.77
2018-03-23T03:24:52.496Z,27.10
2018-03-23T03:27:20.092Z,32.30
2018-03-23T03:29:47.675Z,26.13
2018-03-23T03:32:15.366Z,40.63
2018-03-23T03:34:42.951Z,35.97
2018-03-23T03:37:10.889Z,39.90
2018-03-23T03:39:38.474Z,34.70
2018-03-23T03:42:06.360Z,34.97
2018-03-23T03:44:33.980Z,42.30
2018-03-23T03:47:01.573Z,25.27
2018-03-23T03:49:29.570Z,31.40
2018-03-23T03:51:57.174Z,36.20
2018-03-23T03:54:24.784Z,37.50
2018-03-23T03:56:52.707Z,35.50
2018-03-23T03:59:20.304Z,49.30
2018-03-23T04:01:47.994Z,34.90
2018-03-23T04:04:15.603Z,33.63
2018-03-23T04:06:43.214Z,32.87
2018-03-23T04:09:11.110Z,30.13
2018-03-23T04:11:38.720Z,45.10
2018-03-23T04:14:06.330Z,35.97
2018-03-23T04:16:34.011Z,28.23
2018-03-23T04:19:01.878Z,35.03
2018-03-23T04:21:29.485Z,27.10
2018-03-23T04:23:57.465Z,30.93
2018-03-23T04:26:25.152Z,34.93
2018-03-23T04:28:52.729Z,42.90
2018-03-23T04:31:20.349Z,35.20
2018-03-23T04:33:47.989Z,41.20
2018-03-23T04:36:15.618Z,30.30
2018-03-23T04:38:43.445Z,64.10
2018-03-23T04:41:11.049Z,35.43
2018-03-23T04:43:38.651Z,29.10
2018-03-23T04:46:06.666Z,32.90
2018-03-23T04:48:34.277Z,56.53
2018-03-23T04:51:01.865Z,48.53
2018-03-23T04:53:29.922Z,53.00
2018-03-23T04:55:57.502Z,37.67
2018-03-23T04:58:25.388Z,39.60
2018-03-23T05:00:53.526Z,52.07
2018-03-23T05:03:21.099Z,35.03
2018-03-23T05:05:48.704Z,39.43
2018-03-23T05:08:16.307Z,35.10
2018-03-23T05:10:44.415Z,36.33
2018-03-23T05:13:12.059Z,31.03
2018-03-23T05:15:39.733Z,37.07
2018-03-23T05:18:07.325Z,34.87
2018-03-23T05:20:35.474Z,37.87
2018-03-23T05:23:03.063Z,49.27
2018-03-23T05:25:30.662Z,41.90
2018-03-23T05:27:58.293Z,45.30
2018-03-23T05:30:25.975Z,42.50
2018-03-23T05:32:53.563Z,35.80
2018-03-23T05:35:21.163Z,52.90
2018-03-23T05:37:49.182Z,31.00
2018-03-23T05:40:16.781Z,37.20
2018-03-23T05:42:44.418Z,39.27
2018-03-23T05:45:12.043Z,36.60
2018-03-23T05:47:39.695Z,34.13
2018-03-23T05:50:07.320Z,39.07
2018-03-23T05:52:34.957Z,42.77
2018-03-23T05:55:02.595Z,38.93
2018-03-23T05:57:30.186Z,39.17
2018-03-23T05:59:57.778Z,30.07
2018-03-23T06:02:25.430Z,36.30
2018-03-23T06:04:53.078Z,37.60
2018-03-23T06:07:20.665Z,46.13
2018-03-23T06:09:48.292Z,34.80
2018-03-23T06:12:15.993Z,37.90
2018-03-23T06:14:43.602Z,46.80
2018-03-23T06:17:11.607Z,53.80
2018-03-23T06:19:39.209Z,46.90
2018-03-23T06:22:07.051Z,53.17
2018-03-23T06:24:35.174Z,55.60
2018-03-23T06:27:02.769Z,63.83
2018-03-23T06:29:30.557Z,84.97
2018-03-23T06:31:58.180Z,54.37
2018-03-23T06:34:26.257Z,65.30
2018-03-23T06:36:53.860Z,63.33
2018-03-23T06:39:21.449Z,63.93
2018-03-23T06:41:49.094Z,56.40
2018-03-23T06:44:16.679Z,60.00
2018-03-23T06:46:44.331Z,64.60
2018-03-23T06:49:12.122Z,66.80
2018-03-23T06:51:44.096Z,104.53
2018-03-23T06:54:11.728Z,67.67
2018-03-23T06:56:39.425Z,80.03
2018-03-23T06:59:07.080Z,70.30
2018-03-23T07:01:34.870Z,86.77
2018-03-23T07:04:02.476Z,88.67
2018-03-23T07:06:30.070Z,83.73
2018-03-23T07:08:57.749Z,78.87
2018-03-23T07:11:25.780Z,80.57
2018-03-23T07:13:53.680Z,78.20
2018-03-23T07:16:21.281Z,94.47
2018-03-23T07:18:48.939Z,88.90
2018-03-23T07:21:16.798Z,94.63
2018-03-23T07:23:44.849Z,87.97
2018-03-23T07:26:13.114Z,113.03
2018-03-23T07:28:40.720Z,100.27
2018-03-23T07:31:08.301Z,128.13
2018-03-23T07:33:36.617Z,132.03
2018-03-23T07:36:04.267Z,139.90
2018-03-23T07:38:32.101Z,129.37
2018-03-23T07:41:00.176Z,140.50
2018-03-23T07:43:27.845Z,128.03
2018-03-23T07:45:55.423Z,120.23
2018-03-23T07:48:23.042Z,142.33
2018-03-23T07:50:51.477Z,143.37
2018-03-23T07:53:19.198Z,169.80
2018-03-23T07:55:47.116Z,127.00
2018-03-23T07:58:14.701Z,156.00
2018-03-23T08:00:42.742Z,132.80
2018-03-23T08:03:10.377Z,149.03
2018-03-23T08:05:37.977Z,152.07
2018-03-23T08:08:05.651Z,130.13
2018-03-23T08:10:33.317Z,158.20
2018-03-23T08:13:00.974Z,130.67
2018-03-23T08:15:28.984Z,137.77
2018-03-23T08:17:56.585Z,123.13
2018-03-23T08:20:24.185Z,135.70
2018-03-23T08:22:52.276Z,129.70
2018-03-23T08:25:19.880Z,133.37
2018-03-23T08:27:47.488Z,118.10
2018-03-23T08:30:15.310Z,111.57
2018-03-23T08:32:42.952Z,104.90
2018-03-23T08:35:10.836Z,129.90
2018-03-23T08:37:38.544Z,107.93
2018-03-23T08:40:06.152Z,101.43
2018-03-23T08:42:33.767Z,85.30
2018-03-23T08:45:01.795Z,87.87
2018-03-23T08:47:29.390Z,87.63
2018-03-23T08:49:57.731Z,76.97
2018-03-23T08:52:25.386Z,60.70
2018-03-23T08:54:52.976Z,71.23
2018-03-23T08:57:20.841Z,83.00
2018-03-23T08:59:48.454Z,68.43
2018-03-23T09:02:16.279Z,74.67
2018-03-23T09:04:43.870Z,78.43
2018-03-23T09:07:11.481Z,69.60
2018-03-23T09:09:39.351Z,60.63
2018-03-23T09:12:07.115Z,62.10
2018-03-23T09:14:34.842Z,58.23
2018-03-23T09:17:02.684Z,64.03
2018-03-23T09:19:30.395Z,63.33
2018-03-23T09:21:58.059Z,75.47
2018-03-23T09:24:25.965Z,59.73
2018-03-23T09:26:53.572Z,60.23
2018-03-23T09:29:21.167Z,52.47
2018-03-23T09:31:48.792Z,50.03
2018-03-23T09:34:16.467Z,50.23
2018-03-23T09:36:44.099Z,43.00
2018-03-23T09:39:11.693Z,50.87
2018-03-23T09:41:39.344Z,43.17
2018-03-23T09:44:07.167Z,42.53
2018-03-23T09:46:34.872Z,45.37
2018-03-23T09:49:02.609Z,37.80
2018-03-23T09:51:30.241Z,45.80
2018-03-23T09:53:57.819Z,42.27
2018-03-23T09:56:25.655Z,36.00
2018-03-23T09:58:53.610Z,37.10
2018-03-23T10:01:21.271Z,37.07
2018-03-23T10:03:48.920Z,36.13
2018-03-23T10:06:16.524Z,39.60
2018-03-23T10:08:45.363Z,31.97
2018-03-23T10:11:12.991Z,29.87
2018-03-23T10:13:40.592Z,32.10
2018-03-23T10:16:08.776Z,28.73
2018-03-23T10:18:36.353Z,26.23
2018-03-23T10:21:03.951Z,45.60
2018-03-23T10:23:31.642Z,33.33
2018-03-23T10:25:59.248Z,43.07
2018-03-23T10:28:26.863Z,33.07
2018-03-23T10:30:55.317Z,29.37
2018-03-23T10:33:23.339Z,36.67
2018-03-23T10:35:51.361Z,31.60
2018-03-23T10:38:18.949Z,28.17
2018-03-23T10:40:46.534Z,29.13
2018-03-23T10:43:14.171Z,31.97
2018-03-23T10:45:42.115Z,33.17
2018-03-23T10:48:09.682Z,24.90
2018-03-23T10:50:37.383Z,35.43
2018-03-23T10:53:04.965Z,37.23
2018-03-23T10:55:32.911Z,27.70
2018-03-23T10:58:07.411Z,31.23
2018-03-23T11:00:40.523Z,28.80
2018-03-23T11:03:08.228Z,29.30
2018-03-23T11:05:35.823Z,28.63
2018-03-23T11:08:03.491Z,22.90
2018-03-23T11:10:31.137Z,25.53
2018-03-23T11:12:59.029Z,32.27
2018-03-23T11:15:26.608Z,34.67
2018-03-23T11:17:54.342Z,30.80
2018-03-23T11:20:22.240Z,27.03
2018-03-23T11:22:49.829Z,30.80
2018-03-23T11:25:17.541Z,27.37
2018-03-23T11:27:45.211Z,32.90
2018-03-23T11:30:13.103Z,29.13
2018-03-23T11:32:40.780Z,34.10
2018-03-23T11:35:08.354Z,27.80
2018-03-23T11:37:35.941Z,29.57
2018-03-23T11:40:03.840Z,28.00
2018-03-23T11:42:31.432Z,26.10
2018-03-23T11:44:59.049Z,23.60
2018-03-23T11:47:27.032Z,25.57
2018-03-23T11:49:54.748Z,26.07
2018-03-23T11:52:22.403Z,33.03
2018-03-23T11:54:49.998Z,26.30
2018-03-23T11:57:18.014Z,23.60
2018-03-23T11:59:45.660Z,25.57
2018-03-23T12:02:13.359Z,24.13
2018-03-23T12:04:41.006Z,23.37
2018-03-23T12:07:08.607Z,29.87
2018-03-23T12:09:36.604Z,23.83
2018-03-23T12:12:04.194Z,22.73
2018-03-23T12:14:32.711Z,15.73
2018-03-23T12:17:00.373Z,16.20
2018-03-23T12:19:27.961Z,15.47
2018-03-23T12:21:55.547Z,14.30
2018-03-23T12:24:23.182Z,20.37
2018-03-23T12:26:50.915Z,12.33
2018-03-23T12:29:18.479Z,8.50
2018-03-23T12:31:46.121Z,9.50
2018-03-23T12:34:13.704Z,10.17
2018-03-23T12:36:41.315Z,12.70
2018-03-23T12:39:08.947Z,7.53
2018-03-23T12:41:36.543Z,11.70
2018-03-23T12:44:04.138Z,8.43
2018-03-23T12:46:31.751Z,19.80
2018-03-23T12:48:59.345Z,12.67
2018-03-23T12:51:27.357Z,12.67
2018-03-23T12:53:55.248Z,14.83
2018-03-23T12:56:23.419Z,12.70
2018-03-23T12:58:51.129Z,15.70
2018-03-23T13:01:18.771Z,11.10
2018-03-23T13:03:46.494Z,11.67
2018-03-23T13:06:14.436Z,8.77
2018-03-23T13:08:42.095Z,9.70
2018-03-23T13:11:09.681Z,11.40
2018-03-23T13:13:37.394Z,11.40
2018-03-23T13:16:04.977Z,15.33
2018-03-23T13:18:32.636Z,20.83
2018-03-23T13:21:00.307Z,15.60
2018-03-23T13:23:27.906Z,18.67
2018-03-23T13:25:55.511Z,17.33
2018-03-23T13:28:23.127Z,11.67
2018-03-23T13:30:50.711Z,12.97
2018-03-23T13:33:18.413Z,13.23
2018-03-23T13:35:46.011Z,15.00
2018-03-23T13:38:13.606Z,10.80
2018-03-23T13:40:41.397Z,17.57
2018-03-23T13:43:09.041Z,12.93
2018-03-23T13:45:36.634Z,17.27
2018-03-23T13:48:04.307Z,15.27
2018-03-23T13:50:31.930Z,14.40
2018-03-23T13:52:59.514Z,18.93
2018-03-23T13:55:27.419Z,16.93
2018-03-23T13:57:55.078Z,18.50
2018-03-23T14:00:28.201Z,11.93
2018-03-23T14:02:55.810Z,12.93
2018-03-23T14:05:23.450Z,11.47
2018-03-23T14:07:51.154Z,15.37
2018-03-23T14:10:18.786Z,19.33
2018-03-23T14:12:46.387Z,19.30
2018-03-23T14:15:14.246Z,18.20
2018-03-23T14:17:42.427Z,12.77
2018-03-23T14:20:10.046Z,11.90
2018-03-23T14:22:37.766Z,20.93
2018-03-23T14:25:05.768Z,13.27
2018-03-23T14:27:33.332Z,21.70
2018-03-23T14:30:00.940Z,13.90
2018-03-23T14:32:28.678Z,14.67
2018-03-23T14:34:56.354Z,25.93
2018-03-23T14:37:23.933Z,16.10
2018-03-23T14:39:51.558Z,14.73
2018-03-23T14:42:19.460Z,15.90
2018-03-23T14:44:47.139Z,14.33
2018-03-23T14:47:15.090Z,14.60
2018-03-23T14:49:43.220Z,14.60
2018-03-23T14:52:10.810Z,14.33
2018-03-23T14:54:38.724Z,13.17
2018-03-23T14:57:06.365Z,12.57
2018-03-23T14:59:34.771Z,12.63
2018-03-23T15:02:02.354Z,14.13
2018-03-23T15:04:29.991Z,11.03
2018-03-23T15:06:57.828Z,16.13
2018-03-23T15:09:25.476Z,12.30
2018-03-23T15:11:53.072Z,15.00
2018-03-23T15:14:20.664Z,13.00
2018-03-23T15:16:48.445Z,14.10
2018-03-23T15:19:16.025Z,13.40
2018-03-23T15:21:43.914Z,14.07
2018-03-23T15:24:11.485Z,14.50
2018-03-23T15:26:39.529Z,15.77
2018-03-23T15:29:07.146Z,13.33
2018-03-23T15:31:34.725Z,13.93
2018-03-23T15:34:02.646Z,12.67
2018-03-23T15:36:30.225Z,13.70
2018-03-23T15:38:57.866Z,13.60
2018-03-23T15:41:25.506Z,12.83
2018-03-23T15:43:53.106Z,15.90
2018-03-23T15:46:20.746Z,12.60
2018-03-23T15:48:48.512Z,17.63
2018-03-23T15:51:16.200Z,21.27
2018-03-23T15:53:43.864Z,10.93
2018-03-23T15:56:11.458Z,18.10
2018-03-23T15:58:39.469Z,11.57
2018-03-23T16:01:08.068Z,14.70
2018-03-23T16:03:42.672Z,16.93
2018-03-23T16:06:10.348Z,14.47
2018-03-23T16:08:38.091Z,20.83
2018-03-23T16:11:05.820Z,14.23
2018-03-23T16:13:33.414Z,13.33
2018-03-23T16:16:01.059Z,13.10
2018-03-23T16:18:29.154Z,16.17
2018-03-23T16:20:57.111Z,12.83
2018-03-23T16:23:24.685Z,15.60
2018-03-23T16:25:52.745Z,10.83
2018-03-23T16:28:20.365Z,18.30
2018-03-23T16:30:48.273Z,22.27
2018-03-23T16:33:16.113Z,13.03
2018-03-23T16:35:43.762Z,12.43
2018-03-23T16:38:11.671Z,17.90
2018-03-23T16:40:39.285Z,17.70
2018-03-23T16:43:06.913Z,11.97
2018-03-23T16:45:34.569Z,17.10
2018-03-23T16:48:02.188Z,15.23
2018-03-23T16:50:30.257Z,13.53
2018-03-23T16:52:57.897Z,11.63
2018-03-23T16:55:26.080Z,19.03
2018-03-23T16:57:53.834Z,18.90
2018-03-23T17:00:21.559Z,11.70
2018-03-23T17:02:49.170Z,23.60
2018-03-23T17:05:17.181Z,16.60
2018-03-23T17:07:44.857Z,16.43
2018-03-23T17:10:12.462Z,17.27
2018-03-23T17:12:40.144Z,14.20
2018-03-23T17:15:07.743Z,16.03
2018-03-23T17:17:35.349Z,15.37
2018-03-23T17:20:03.062Z,28.10
2018-03-23T17:22:30.806Z,17.00
2018-03-23T17:24:58.520Z,15.67
2018-03-23T17:27:26.200Z,13.50
2018-03-23T17:29:53.819Z,21.20
2018-03-23T17:32:21.405Z,14.67
2018-03-23T17:34:49.233Z,13.57
2018-03-23T17:37:17.202Z,16.13
2018-03-23T17:39:44.804Z,23.13
2018-03-23T17:42:12.484Z,18.43
2018-03-23T17:44:40.081Z,15.93
2018-03-23T17:47:07.740Z,17.27
2018-03-23T17:49:35.736Z,15.70
2018-03-23T17:52:03.492Z,16.20
2018-03-23T17:54:31.200Z,18.87
2018-03-23T17:56:58.906Z,18.53
2018-03-23T17:59:26.585Z,15.90
2018-03-23T18:01:54.319Z,20.03
2018-03-23T18:04:22.263Z,18.23
2018-03-23T18:06:49.963Z,22.67
2018-03-23T18:09:17.679Z,18.20
2018-03-23T18:11:45.696Z,17.67
2018-03-23T18:14:13.441Z,20.70
2018-03-23T18:16:41.037Z,21.60
2018-03-23T18:19:08.882Z,17.77
2018-03-23T18:21:37.072Z,17.00
2018-03-23T18:24:05.502Z,22.97
2018-03-23T18:26:33.729Z,18.33
2018-03-23T18:29:01.849Z,20.53
2018-03-23T18:31:30.332Z,25.07
2018-03-23T18:33:57.951Z,16.77
2018-03-23T18:36:25.551Z,20.73
2018-03-23T18:38:53.329Z,20.30
2018-03-23T18:41:20.955Z,16.80
2018-03-23T18:43:48.622Z,17.30
2018-03-23T18:46:16.539Z,21.53
2018-03-23T18:48:44.210Z,23.77
2018-03-23T18:51:11.879Z,32.17
2018-03-23T18:53:39.925Z,29.67
2018-03-23T18:56:07.527Z,42.07
2018-03-23T18:58:35.169Z,26.10
2018-03-23T19:01:03.158Z,22.13
2018-03-23T19:03:30.754Z,20.10
2018-03-23T19:05:58.720Z,19.10
2018-03-23T19:08:26.351Z,23.70
2018-03-23T19:10:54.017Z,21.37
2018-03-23T19:13:21.676Z,28.30
2018-03-23T19:15:49.379Z,19.77
2018-03-23T19:18:17.305Z,28.77
2018-03-23T19:20:44.889Z,30.70
2018-03-23T19:23:12.603Z,24.43
2018-03-23T19:25:40.597Z,20.70
2018-03-23T19:28:08.420Z,23.83
2018-03-23T19:30:36.091Z,25.83
2018-03-23T19:33:03.793Z,19.30
2018-03-23T19:35:31.467Z,30.00
2018-03-23T19:37:59.100Z,37.27
2018-03-23T19:40:26.802Z,30.50
2018-03-23T19:42:54.926Z,26.33
2018-03-23T19:45:22.535Z,30.93
2018-03-23T19:47:50.380Z,33.73
2018-03-23T19:50:18.266Z,32.93
2018-03-23T19:52:46.217Z,27.83
2018-03-23T19:55:13.921Z,32.00
2018-03-23T19:57:41.579Z,30.13
2018-03-23T20:00:09.510Z,34.10
2018-03-23T20:02:37.119Z,29.50
2018-03-23T20:05:04.826Z,31.37
2018-03-23T20:07:32.423Z,43.30
2018-03-23T20:10:00.027Z,37.83
2018-03-23T20:12:27.897Z,35.37
2018-03-23T20:14:55.569Z,33.27
2018-03-23T20:17:28.911Z,32.30
2018-03-23T20:19:56.701Z,32.00
2018-03-23T20:22:24.348Z,48.27
2018-03-23T20:24:51.982Z,33.10
2018-03-23T20:27:25.474Z,38.30
2018-03-23T20:29:53.093Z,38.17
2018-03-23T20:32:26.222Z,38.20
2018-03-23T20:34:53.814Z,36.60
2018-03-23T20:37:21.423Z,39.13
2018-03-23T20:39:49.080Z,36.10
2018-03-23T20:42:16.681Z,37.17
2018-03-23T20:44:44.277Z,45.80
2018-03-23T20:47:11.971Z,39.63
2018-03-23T20:49:39.839Z,37.87
2018-03-23T20:52:07.519Z,42.23
2018-03-23T20:54:35.271Z,40.33
2018-03-23T20:57:02.989Z,35.80
2018-03-23T20:59:30.599Z,33.50
2018-03-23T21:01:58.209Z,33.27
2018-03-23T21:04:25.880Z,35.60
2018-03-23T21:06:53.543Z,30.83
2018-03-23T21:09:21.144Z,37.77
2018-03-23T21:11:49.228Z,48.70
2018-03-23T21:14:16.981Z,39.83
2018-03-23T21:16:44.596Z,32.17
2018-03-23T21:19:12.226Z,44.33
2018-03-23T21:21:39.912Z,38.47
2018-03-23T21:24:08.021Z,37.67
2018-03-23T21:26:35.624Z,39.13
2018-03-23T21:29:03.217Z,37.00
2018-03-23T21:31:30.924Z,45.37
2018-03-23T21:33:58.666Z,37.80
2018-03-23T21:36:26.267Z,41.97
2018-03-23T21:38:53.911Z,42.60
2018-03-23T21:41:21.581Z,46.27
2018-03-23T21:43:49.478Z,35.00
2018-03-23T21:46:17.068Z,38.00
2018-03-23T21:48:44.821Z,46.27
2018-03-23T21:51:12.435Z,39.30
2018-03-23T21:53:40.029Z,33.80
2018-03-23T21:56:07.692Z,31.40
2018-03-23T21:58:35.319Z,32.43
2018-03-23T22:01:02.909Z,34.20
2018-03-23T22:03:30.633Z,37.13
2018-03-23T22:05:58.243Z,33.40
2018-03-23T22:08:25.919Z,35.37
2018-03-23T22:10:53.787Z,32.97
2018-03-23T22:13:21.674Z,31.77
2018-03-23T22:15:49.272Z,36.80
2018-03-23T22:18:18.429Z,34.27
2018-03-23T22:20:46.510Z,39.07
2018-03-23T22:23:14.141Z,53.33
2018-03-23T22:25:41.793Z,77.03
2018-03-23T22:28:09.432Z,99.17
2018-03-23T22:30:37.396Z,122.33
2018-03-23T22:33:05.062Z,50.40
2018-03-23T22:35:32.700Z,63.97
2018-03-23T22:38:00.446Z,49.07
2018-03-23T22:40:28.054Z,35.00
2018-03-23T22:42:57.060Z,35.37
2018-03-23T22:45:24.688Z,31.93
2018-03-23T22:47:52.357Z,40.93
2018-03-23T22:50:20.046Z,55.87
2018-03-23T22:52:47.714Z,43.90
2018-03-23T22:55:15.667Z,31.27
2018-03-23T22:57:43.260Z,57.23
2018-03-23T23:00:10.877Z,62.30
2018-03-23T23:02:38.949Z,64.30
2018-03-23T23:05:06.841Z,77.63
2018-03-23T23:07:34.472Z,70.23
2018-03-23T23:10:02.387Z,71.20
2018-03-23T23:12:30.082Z,61.70
2018-03-23T23:14:57.861Z,57.37
2018-03-23T23:17:25.760Z,60.20
2018-03-23T23:19:53.563Z,52.90
2018-03-23T23:22:21.230Z,54.07
2018-03-23T23:24:48.860Z,54.03
2018-03-23T23:27:16.475Z,50.50
2018-03-23T23:29:44.299Z,49.57
2018-03-23T23:32:12.257Z,67.40
2018-03-23T23:34:39.962Z,52.40
2018-03-23T23:37:07.582Z,60.77
2018-03-23T23:39:35.218Z,64.67
2018-03-23T23:42:02.814Z,49.40
2018-03-23T23:44:30.470Z,48.33
2018-03-23T23:46:58.069Z,54.60
2018-03-23T23:49:25.648Z,53.00
2018-03-23T23:51:53.339Z,54.37
2018-03-23T23:54:21.078Z,54.60
2018-03-23T23:56:48.680Z,56.50
2018-03-23T23:59:16.747Z,61.33
